Time;durP1;ratioP1;P1;durP2;ratioP2;P2;SDS_P1;SDS_P2;PMS_P1;PMS_P2;Temp;Humidity;BMP_temperature;BMP_pressure;BME280_temperature;BME280_humidity;BME280_pressure;Samples;Min_cycle;Max_cycle;Signal;HPM_P1;HPM_P2
2022/12/06 00:01:15;;;;;;;;;;;;;;;3.75;100.00;102048.28;6216455;23;19958;-83
2022/12/06 00:03:41;;;;;;;;;;;;;;;3.77;100.00;102047.47;6215501;23;19915;-82
2022/12/06 00:06:08;;;;;;;;;;;;;;;3.77;100.00;102050.03;6215364;23;19919;-82
2022/12/06 00:08:33;;;;;;;;;;;;;;;3.78;100.00;102047.50;6216345;23;19912;-82
2022/12/06 00:11:06;;;;;;;;;;;;;;;3.78;100.00;102052.66;6215309;23;20321;-82
2022/12/06 00:13:32;;;;;;;;;;;;;;;3.78;100.00;102044.91;6214287;23;19912;-82
2022/12/06 00:16:04;;;;;;;;;;;;;;;3.77;100.00;102043.19;6216299;23;19916;-83
2022/12/06 00:18:31;;;;;;;;;;;;;;;3.78;100.00;102051.78;6216123;23;19912;-82
2022/12/06 00:21:04;;;;;;;;;;;;;;;3.77;100.00;102050.91;6215019;23;19916;-82
2022/12/06 00:23:29;;;;;;;;;;;;;;;3.78;100.00;102055.22;6216514;23;19923;-82
2022/12/06 00:25:54;;;;;;;;;;;;;;;3.78;100.00;102047.50;6216059;23;19908;-82
2022/12/06 00:28:19;;;;;;;;;;;;;;;3.79;100.00;102043.19;6214614;23;19916;-82
2022/12/06 00:30:44;;;;;;;;;;;;;;;3.79;100.00;102044.06;6216164;23;20224;-82
2022/12/06 00:33:10;;;;;;;;;;;;;;;3.79;100.00;102038.91;6215439;23;20324;-82
2022/12/06 00:35:35;;;;;;;;;;;;;;;3.80;100.00;102045.84;6214232;23;20002;-82
2022/12/06 00:38:00;;;;;;;;;;;;;;;3.80;100.00;102040.66;6214743;23;19943;-82
2022/12/06 00:40:26;;;;;;;;;;;;;;;3.80;100.00;102038.09;6214897;23;19984;-82
2022/12/06 00:42:51;;;;;;;;;;;;;;;3.80;100.00;102048.41;6214680;23;19983;-82
2022/12/06 00:45:16;;;;;;;;;;;;;;;3.81;100.00;102044.13;6215167;23;19912;-82
2022/12/06 00:47:41;;;;;;;;;;;;;;;3.81;100.00;102038.97;6213752;23;19911;-82
2022/12/06 00:50:07;;;;;;;;;;;;;;;3.81;100.00;102042.41;6215907;23;19912;-81
2022/12/06 00:52:32;;;;;;;;;;;;;;;3.80;100.00;102039.81;6215865;23;19912;-82
2022/12/06 00:54:57;;;;;;;;;;;;;;;3.79;100.00;102038.03;6214235;23;20088;-83
2022/12/06 00:57:22;;;;;;;;;;;;;;;3.80;100.00;102045.84;6216231;23;19912;-82
2022/12/06 00:59:48;;;;;;;;;;;;;;;3.79;100.00;102044.06;6215854;23;19912;-82
2022/12/06 01:02:13;;;;;;;;;;;;;;;3.78;100.00;102042.31;6214876;23;19916;-82
2022/12/06 01:04:38;;;;;;;;;;;;;;;3.78;100.00;102042.31;6215929;23;19912;-82
2022/12/06 01:07:03;;;;;;;;;;;;;;;3.78;100.00;102041.47;6215566;23;19918;-82
2022/12/06 01:09:29;;;;;;;;;;;;;;;3.78;100.00;102044.03;6214683;23;19919;-82
2022/12/06 01:11:55;;;;;;;;;;;;;;;3.78;100.00;102041.47;6215093;23;19938;-83
2022/12/06 01:14:20;;;;;;;;;;;;;;;3.78;100.00;102042.31;6216211;23;19916;-82
2022/12/06 01:16:46;;;;;;;;;;;;;;;3.78;100.00;102042.31;6214659;23;20355;-82
2022/12/06 01:19:11;;;;;;;;;;;;;;;3.78;100.00;102047.50;6215919;23;19912;-82
2022/12/06 01:21:36;;;;;;;;;;;;;;;3.78;100.00;102047.50;6215884;23;19916;-82
2022/12/06 01:24:02;;;;;;;;;;;;;;;3.78;100.00;102044.91;6214547;23;20228;-82
2022/12/06 01:26:31;;;;;;;;;;;;;;;3.79;100.00;102048.34;6215918;23;19942;-82
2022/12/06 01:28:57;;;;;;;;;;;;;;;3.79;100.00;102045.78;6215430;23;19981;-82
2022/12/06 01:31:22;;;;;;;;;;;;;;;3.78;100.00;102050.06;6215089;23;20321;-82
2022/12/06 01:33:48;;;;;;;;;;;;;;;3.78;100.00;102052.66;6215480;23;19918;-81
2022/12/06 01:36:17;;;;;;;;;;;;;;;3.79;100.00;102049.22;6215901;23;19912;-82
2022/12/06 01:38:42;;;;;;;;;;;;;;;3.81;100.00;102052.72;6214492;23;19919;-81
2022/12/06 01:41:07;;;;;;;;;;;;;;;3.80;100.00;102050.13;6215361;23;19912;-81
2022/12/06 01:43:34;;;;;;;;;;;;;;;3.81;100.00;102044.97;6215591;23;19919;-81
2022/12/06 01:46:04;;;;;;;;;;;;;;;3.82;100.00;102046.72;6215130;23;19912;-82
2022/12/06 01:48:29;;;;;;;;;;;;;;;3.82;100.00;102049.28;6215749;23;19997;-82
2022/12/06 01:50:55;;;;;;;;;;;;;;;3.82;100.00;102038.97;6214545;23;19912;-81
2022/12/06 01:53:21;;;;;;;;;;;;;;;3.83;100.00;102043.31;6215812;23;19923;-82
2022/12/06 01:55:47;;;;;;;;;;;;;;;3.84;100.00;102036.44;6214151;23;20386;-82
2022/12/06 01:58:16;;;;;;;;;;;;;;;3.84;100.00;102037.31;6213974;23;19911;-82
2022/12/06 02:00:42;;;;;;;;;;;;;;;3.85;100.00;102036.47;6214267;23;19912;-82
2022/12/06 02:03:10;;;;;;;;;;;;;;;3.85;100.00;102033.88;6215209;23;19915;-82
2022/12/06 02:05:37;;;;;;;;;;;;;;;3.85;100.00;102039.06;6214875;23;19947;-82
2022/12/06 02:08:02;;;;;;;;;;;;;;;3.85;100.00;102039.06;6214552;23;19946;-81
2022/12/06 02:10:28;;;;;;;;;;;;;;;3.85;100.00;102040.75;6215667;23;19912;-82
2022/12/06 02:12:55;;;;;;;;;;;;;;;3.85;100.00;102033.88;6214002;23;20346;-82
2022/12/06 02:15:23;;;;;;;;;;;;;;;3.85;100.00;102041.63;6215602;23;19912;-82
2022/12/06 02:18:01;;;;;;;;;;;;;;;3.85;100.00;102039.06;6214777;23;20237;-82
2022/12/06 02:20:26;;;;;;;;;;;;;;;3.83;100.00;102030.44;6215733;23;19907;-82
2022/12/06 02:23:11;;;;;;;;;;;;;;;3.83;100.00;102038.16;6217332;23;20335;-82
2022/12/06 02:25:48;;;;;;;;;;;;;;;3.84;100.00;102034.75;6170997;23;19990;-81
2022/12/06 02:28:14;;;;;;;;;;;;;;;3.85;100.00;102038.19;6217532;23;19911;-82
2022/12/06 02:30:39;;;;;;;;;;;;;;;3.84;100.00;102032.16;6217222;23;20248;-82
2022/12/06 02:33:18;;;;;;;;;;;;;;;3.83;100.00;102030.44;6216930;23;20324;-82
2022/12/06 02:35:48;;;;;;;;;;;;;;;3.82;100.00;102026.09;6216959;23;19919;-82
2022/12/06 02:38:13;;;;;;;;;;;;;;;3.81;100.00;102026.06;6217500;23;19911;-82
2022/12/06 02:40:44;;;;;;;;;;;;;;;3.79;100.00;102023.44;6216204;23;19912;-82
2022/12/06 02:43:16;;;;;;;;;;;;;;;3.80;100.00;102026.91;6217521;23;19994;-82
2022/12/06 02:45:47;;;;;;;;;;;;;;;3.79;100.00;102023.44;6216825;23;20275;-82
2022/12/06 02:48:13;;;;;;;;;;;;;;;3.79;100.00;102014.81;6216519;23;19919;-82
2022/12/06 02:50:41;;;;;;;;;;;;;;;3.77;100.00;102021.69;6217241;23;19935;-82
2022/12/06 02:53:10;;;;;;;;;;;;;;;3.77;100.00;102019.09;6217460;23;19951;-82
2022/12/06 02:55:35;;;;;;;;;;;;;;;3.77;100.00;102026.84;6215911;23;20320;-81
2022/12/06 02:58:01;;;;;;;;;;;;;;;3.75;100.00;102016.47;6216964;23;19912;-81
2022/12/06 03:00:32;;;;;;;;;;;;;;;3.75;100.00;102019.91;6217235;23;20260;-82
2022/12/06 03:03:12;;;;;;;;;;;;;;;3.75;100.00;102016.47;6215573;23;20423;-81
2022/12/06 03:05:41;;;;;;;;;;;;;;;3.75;100.00;102021.63;6217092;23;19916;-81
2022/12/06 03:08:12;;;;;;;;;;;;;;;3.75;100.00;102019.91;6216348;23;19919;-81
2022/12/06 03:10:39;;;;;;;;;;;;;;;3.75;100.00;102021.63;6216354;23;19923;-81
2022/12/06 03:13:13;;;;;;;;;;;;;;;3.74;100.00;102020.75;6216275;23;19966;-82
2022/12/06 03:15:47;;;;;;;;;;;;;;;3.75;100.00;102021.63;6215566;23;19912;-81
2022/12/06 03:18:13;;;;;;;;;;;;;;;3.76;100.00;102023.38;6216357;23;19916;-81
2022/12/06 03:20:58;;;;;;;;;;;;;;;3.74;100.00;102028.50;6216570;23;19962;-81
2022/12/06 03:23:29;;;;;;;;;;;;;;;3.76;100.00;102020.81;6198769;23;19911;-81
2022/12/06 03:25:57;;;;;;;;;;;;;;;3.77;100.00;102027.69;6216084;23;19912;-81
2022/12/06 03:28:22;;;;;;;;;;;;;;;3.76;100.00;102031.13;6215654;23;19916;-82
2022/12/06 03:30:50;;;;;;;;;;;;;;;3.76;100.00;102025.97;6215055;23;19919;-81
2022/12/06 03:33:18;;;;;;;;;;;;;;;3.76;100.00;102028.53;6216496;23;19912;-82
2022/12/06 03:35:44;;;;;;;;;;;;;;;3.75;100.00;102027.66;6216402;23;19912;-82
2022/12/06 03:38:11;;;;;;;;;;;;;;;3.75;100.00;102027.66;6215237;23;19982;-81
2022/12/06 03:40:38;;;;;;;;;;;;;;;3.76;100.00;102031.13;6216581;23;19912;-82
2022/12/06 03:43:04;;;;;;;;;;;;;;;3.74;100.00;102025.91;6216085;23;19912;-82
2022/12/06 03:45:34;;;;;;;;;;;;;;;3.74;100.00;102028.50;6215097;23;19912;-81
2022/12/06 03:48:05;;;;;;;;;;;;;;;3.74;100.00;102025.03;6216103;23;19919;-81
2022/12/06 03:50:33;;;;;;;;;;;;;;;3.75;100.00;102021.63;6215154;23;20255;-81
2022/12/06 03:52:59;;;;;;;;;;;;;;;3.75;100.00;102022.50;6215644;23;19916;-81
2022/12/06 03:55:25;;;;;;;;;;;;;;;3.76;100.00;102020.81;6216139;23;19919;-81
2022/12/06 03:57:50;;;;;;;;;;;;;;;3.77;100.00;102029.41;6214105;23;19916;-82
2022/12/06 04:00:15;;;;;;;;;;;;;;;3.76;100.00;102028.53;6215587;23;19912;-82
2022/12/06 04:02:40;;;;;;;;;;;;;;;3.78;100.00;102026.84;6214901;23;19920;-82
2022/12/06 04:05:06;;;;;;;;;;;;;;;3.76;100.00;102031.13;6215443;23;20325;-82
2022/12/06 04:07:31;;;;;;;;;;;;;;;3.74;100.00;102025.91;6215905;23;19908;-82
2022/12/06 04:10:01;;;;;;;;;;;;;;;3.73;100.00;102020.72;6215915;23;19923;-82
2022/12/06 04:15:10;;;;;;;;;;;;;;;3.73;100.00;102020.72;6215925;23;19919;-82
2022/12/06 04:20:24;;;;;;;;;;;;;;;3.73;100.00;102024.19;6214684;23;19931;-82
2022/12/06 04:23:04;;;;;;;;;;;;;;;3.72;100.00;102024.13;6215923;23;20324;-82
2022/12/06 04:25:33;;;;;;;;;;;;;;;3.71;100.00;102020.69;6215158;23;20377;-82
2022/12/06 04:38:54;;;;;;;;;;;;;;;3.71;100.00;102035.28;6215865;23;19934;-82
2022/12/06 04:44:04;;;;;;;;;;;;;;;3.72;100.00;102031.88;6216075;23;20287;-82
2022/12/06 04:46:29;;;;;;;;;;;;;;;3.72;100.00;102029.28;6215007;23;19912;-82
2022/12/06 04:48:54;;;;;;;;;;;;;;;3.73;100.00;102024.19;6215616;23;19958;-81
2022/12/06 04:51:20;;;;;;;;;;;;;;;3.74;100.00;102027.63;6215311;23;20029;-82
2022/12/06 04:53:45;;;;;;;;;;;;;;;3.75;100.00;102021.63;6214513;23;19924;-81
2022/12/06 04:56:10;;;;;;;;;;;;;;;3.74;100.00;102019.88;6215866;23;19923;-82
2022/12/06 04:58:36;;;;;;;;;;;;;;;3.74;100.00;102019.88;6216303;23;19912;-82
2022/12/06 05:01:01;;;;;;;;;;;;;;;3.74;100.00;102022.47;6214920;23;19918;-81
2022/12/06 05:03:26;;;;;;;;;;;;;;;3.74;100.00;102017.31;6215484;23;20244;-81
2022/12/06 05:05:52;;;;;;;;;;;;;;;3.74;100.00;102022.47;6215832;23;19916;-81
2022/12/06 05:08:17;;;;;;;;;;;;;;;3.73;100.00;102020.72;6214787;23;19912;-81
2022/12/06 05:10:45;;;;;;;;;;;;;;;3.72;100.00;102021.53;6215585;23;19912;-81
2022/12/06 05:13:10;;;;;;;;;;;;;;;3.73;100.00;102023.31;6215979;23;19950;-81
2022/12/06 05:15:36;;;;;;;;;;;;;;;3.72;100.00;102017.25;6215168;23;19916;-81
2022/12/06 05:18:01;;;;;;;;;;;;;;;3.71;100.00;102012.06;6215640;23;19990;-81
2022/12/06 05:20:26;;;;;;;;;;;;;;;3.70;100.00;102018.06;6216072;23;19916;-82
2022/12/06 05:22:51;;;;;;;;;;;;;;;3.68;100.00;102012.88;6214948;23;19912;-81
2022/12/06 05:25:16;;;;;;;;;;;;;;;3.68;100.00;102014.59;6215970;23;19919;-81
2022/12/06 05:27:42;;;;;;;;;;;;;;;3.67;100.00;102013.72;6215498;23;19912;-81
2022/12/06 05:30:07;;;;;;;;;;;;;;;3.65;100.00;102015.38;6214651;23;20256;-81
2022/12/06 05:32:32;;;;;;;;;;;;;;;3.65;100.00;102014.50;6216006;23;19919;-81
2022/12/06 05:34:57;;;;;;;;;;;;;;;3.65;100.00;102019.66;6215458;23;19977;-82
2022/12/06 05:37:23;;;;;;;;;;;;;;;3.66;100.00;102016.25;6215177;23;20312;-82
2022/12/06 05:39:48;;;;;;;;;;;;;;;3.64;100.00;102016.22;6215332;23;19912;-82
2022/12/06 05:42:13;;;;;;;;;;;;;;;3.64;100.00;102016.22;6215625;23;19912;-82
2022/12/06 05:44:38;;;;;;;;;;;;;;;3.64;100.00;102015.34;6214290;23;20351;-82
2022/12/06 05:47:03;;;;;;;;;;;;;;;3.63;100.00;102021.31;6215756;23;19927;-82
2022/12/06 05:49:29;;;;;;;;;;;;;;;3.62;100.00;102014.44;6215452;23;19955;-82
2022/12/06 05:51:54;;;;;;;;;;;;;;;3.61;100.00;102016.16;6213992;23;19912;-82
2022/12/06 05:54:19;;;;;;;;;;;;;;;3.60;100.00;102013.53;6214308;23;19919;-83
2022/12/06 05:56:44;;;;;;;;;;;;;;;3.60;100.00;102021.28;6213857;23;20214;-83
2022/12/06 05:59:09;;;;;;;;;;;;;;;3.57;100.00;102021.19;6214058;23;19912;-82
2022/12/06 06:01:35;;;;;;;;;;;;;;;3.57;100.00;102021.19;6214640;23;20279;-82
2022/12/06 06:04:00;;;;;;;;;;;;;;;3.57;100.00;102018.63;6214399;23;19916;-82
2022/12/06 06:06:25;;;;;;;;;;;;;;;3.56;100.00;102019.44;6214814;23;19919;-82
2022/12/06 06:08:51;;;;;;;;;;;;;;;3.56;100.00;102019.44;6215206;23;19938;-82
2022/12/06 06:11:16;;;;;;;;;;;;;;;3.55;100.00;102018.56;6214645;23;19912;-82
2022/12/06 06:13:41;;;;;;;;;;;;;;;3.52;100.00;102024.53;6215095;23;20236;-82
2022/12/06 06:16:07;;;;;;;;;;;;;;;3.51;100.00;102011.59;6215262;23;19936;-81
2022/12/06 06:18:32;;;;;;;;;;;;;;;3.49;100.00;102021.88;6214464;23;19923;-82
2022/12/06 06:20:58;;;;;;;;;;;;;;;3.49;100.00;102019.28;6215104;23;19970;-82
2022/12/06 06:23:23;;;;;;;;;;;;;;;3.48;100.00;102020.13;6215518;23;19917;-82
2022/12/06 06:25:49;;;;;;;;;;;;;;;3.47;100.00;102020.09;6214376;23;20038;-82
2022/12/06 06:28:14;;;;;;;;;;;;;;;3.46;100.00;102024.38;6215426;23;20277;-82
2022/12/06 06:30:39;;;;;;;;;;;;;;;3.47;100.00;102028.72;6215111;23;19974;-82
2022/12/06 06:33:05;;;;;;;;;;;;;;;3.46;100.00;102018.34;6214910;23;19912;-81
2022/12/06 06:35:30;;;;;;;;;;;;;;;3.47;100.00;102012.38;6215306;23;19998;-81
2022/12/06 06:37:55;;;;;;;;;;;;;;;3.47;100.00;102015.81;6215248;23;19915;-82
2022/12/06 06:40:21;;;;;;;;;;;;;;;3.47;100.00;102018.41;6214261;23;20255;-82
2022/12/06 06:42:46;;;;;;;;;;;;;;;3.46;100.00;102019.22;6215234;23;19912;-82
2022/12/06 06:45:11;;;;;;;;;;;;;;;3.46;100.00;102016.63;6215579;23;19912;-82
2022/12/06 06:47:36;;;;;;;;;;;;;;;3.46;100.00;102020.91;6214689;23;19919;-81
2022/12/06 06:50:02;;;;;;;;;;;;;;;3.44;100.00;102020.03;6215309;23;19916;-82
2022/12/06 06:52:27;;;;;;;;;;;;;;;3.39;100.00;102013.88;6214782;23;19912;-82
2022/12/06 06:54:52;;;;;;;;;;;;;;;3.31;100.00;102016.28;6213368;23;19916;-82
2022/12/06 06:57:17;;;;;;;;;;;;;;;3.21;100.00;102014.31;6213416;23;19940;-81
2022/12/06 06:59:44;;;;;;;;;;;;;;;3.11;100.00;102010.63;6214463;23;19919;-80
2022/12/06 07:02:13;;;;;;;;;;;;;;;3.06;100.00;102017.34;6213410;23;20221;-81
2022/12/06 07:04:38;;;;;;;;;;;;;;;3.01;100.00;102016.38;6213659;23;19916;-81
2022/12/06 07:07:03;;;;;;;;;;;;;;;2.96;100.00;102021.38;6215962;23;19912;-81
2022/12/06 07:09:28;;;;;;;;;;;;;;;2.90;100.00;102020.34;6213199;23;19916;-81
2022/12/06 07:11:53;;;;;;;;;;;;;;;2.86;100.00;102021.97;6216237;23;19911;-81
2022/12/06 07:14:19;;;;;;;;;;;;;;;2.87;100.00;102022.84;6215772;23;20026;-81
2022/12/06 07:16:44;;;;;;;;;;;;;;;2.87;100.00;102018.56;6215533;23;19911;-80
2022/12/06 07:19:09;;;;;;;;;;;;;;;2.86;100.00;102018.53;6216216;23;19912;-80
2022/12/06 07:21:34;;;;;;;;;;;;;;;2.83;100.00;102024.47;6214798;23;19960;-80
2022/12/06 07:24:00;;;;;;;;;;;;;;;2.79;100.00;102012.34;6215989;23;19912;-80
2022/12/06 07:26:27;;;;;;;;;;;;;;;2.74;100.00;102019.91;6215784;23;19916;-79
2022/12/06 07:28:53;;;;;;;;;;;;;;;2.71;100.00;102018.97;6214833;23;20226;-80
2022/12/06 07:31:22;;;;;;;;;;;;;;;2.70;100.00;102020.66;6216360;23;19912;-80
2022/12/06 07:33:50;;;;;;;;;;;;;;;2.74;100.00;102029.34;6216592;23;19987;-80
2022/12/06 07:36:15;;;;;;;;;;;;;;;2.78;100.00;102028.63;6215805;23;20336;-80
2022/12/06 07:38:48;;;;;;;;;;;;;;;2.82;100.00;102027.88;6216216;23;19915;-80
2022/12/06 07:46:41;;;;;;;;;;;;;;;2.92;100.00;102029.88;6216316;23;19970;-80
2022/12/06 07:49:07;;;;;;;;;;;;;;;2.95;100.00;102035.09;6216783;23;19912;-80
2022/12/06 07:51:33;;;;;;;;;;;;;;;2.99;100.00;102036.91;6215800;23;20324;-80
2022/12/06 07:53:58;;;;;;;;;;;;;;;3.01;100.00;102040.41;6216343;23;20340;-80
2022/12/06 07:56:23;;;;;;;;;;;;;;;3.03;100.00;102033.59;6215870;23;20305;-80
2022/12/06 07:58:48;;;;;;;;;;;;;;;3.06;100.00;102043.09;6216492;23;20362;-80
2022/12/06 08:01:14;;;;;;;;;;;;;;;3.09;100.00;102042.31;6216623;23;19911;-80
2022/12/06 08:03:39;;;;;;;;;;;;;;;3.09;100.00;102048.34;6215055;23;20697;-80
2022/12/06 08:06:04;;;;;;;;;;;;;;;3.12;100.00;102044.97;6216667;23;19919;-80
2022/12/06 08:08:30;;;;;;;;;;;;;;;3.14;100.00;102045.88;6216701;23;20347;-80
2022/12/06 08:10:59;;;;;;;;;;;;;;;3.16;100.00;102049.38;6214377;23;20042;-79
2022/12/06 08:13:24;;;;;;;;;;;;;;;3.19;100.00;102044.31;6215875;23;20324;-80
2022/12/06 08:15:49;;;;;;;;;;;;;;;3.22;100.00;102049.53;6216025;23;19912;-80
2022/12/06 08:18:15;;;;;;;;;;;;;;;3.23;100.00;102048.69;6215092;23;19921;-80
2022/12/06 08:20:40;;;;;;;;;;;;;;;3.25;100.00;102047.03;6215818;23;20328;-81
2022/12/06 08:23:05;;;;;;;;;;;;;;;3.28;100.00;102047.13;6216506;23;19983;-81
2022/12/06 08:25:30;;;;;;;;;;;;;;;3.29;100.00;102047.16;6214679;23;20399;-80
2022/12/06 08:27:55;;;;;;;;;;;;;;;3.32;100.00;102048.94;6215989;23;19919;-81
2022/12/06 08:30:21;;;;;;;;;;;;;;;3.36;100.00;102044.72;6216518;23;19982;-81
2022/12/06 08:32:46;;;;;;;;;;;;;;;3.37;100.00;102049.03;6215197;23;19912;-81
2022/12/06 08:35:11;;;;;;;;;;;;;;;3.38;100.00;102040.50;6216364;23;20205;-81
2022/12/06 08:37:36;;;;;;;;;;;;;;;3.39;100.00;102039.66;6215813;23;19916;-81
2022/12/06 08:40:02;;;;;;;;;;;;;;;3.40;100.00;102050.03;6213826;23;20321;-80
2022/12/06 08:42:27;;;;;;;;;;;;;;;3.41;100.00;102043.16;6216206;23;20361;-81
2022/12/06 08:44:53;;;;;;;;;;;;;;;3.38;100.00;102051.69;6215719;23;19912;-81
2022/12/06 08:47:18;;;;;;;;;;;;;;;3.32;100.00;102048.94;6214939;23;20328;-80
2022/12/06 08:49:43;;;;;;;;;;;;;;;3.22;100.00;102054.69;6216107;23;19951;-81
2022/12/06 08:52:09;;;;;;;;;;;;;;;3.13;100.00;102051.88;6215612;23;19942;-81
2022/12/06 08:54:35;;;;;;;;;;;;;;;3.03;100.00;102055.91;6214586;23;20605;-81
2022/12/06 08:57:00;;;;;;;;;;;;;;;2.91;100.00;102059.03;6215398;23;20269;-81
2022/12/06 08:59:25;;;;;;;;;;;;;;;2.83;100.00;102057.06;6215774;23;19912;-81
2022/12/06 09:01:50;;;;;;;;;;;;;;;2.72;100.00;102054.22;6214514;23;19919;-81
2022/12/06 09:04:16;;;;;;;;;;;;;;;2.65;100.00;102060.88;6216024;23;19986;-81
2022/12/06 09:06:42;;;;;;;;;;;;;;;2.62;100.00;102059.94;6214862;23;19919;-80
2022/12/06 09:09:08;;;;;;;;;;;;;;;2.59;100.00;102063.28;6215724;23;19919;-80
2022/12/06 09:11:33;;;;;;;;;;;;;;;2.56;100.00;102071.78;6215978;23;19986;-80
2022/12/06 09:13:58;;;;;;;;;;;;;;;2.55;100.00;102067.47;6214937;23;20018;-81
2022/12/06 09:16:23;;;;;;;;;;;;;;;2.56;100.00;102071.78;6215976;23;20334;-81
2022/12/06 09:18:50;;;;;;;;;;;;;;;2.61;100.00;102077.06;6215277;23;20340;-79
2022/12/06 09:21:17;;;;;;;;;;;;;;;2.68;100.00;102075.53;6214942;23;19943;-79
2022/12/06 09:23:42;;;;;;;;;;;;;;;2.75;100.00;102078.34;6215682;23;19915;-79
2022/12/06 09:26:07;;;;;;;;;;;;;;;2.78;100.00;102069.84;6216070;23;19919;-79
2022/12/06 09:28:33;;;;;;;;;;;;;;;2.83;100.00;102075.97;6214891;23;19912;-79
2022/12/06 09:30:59;;;;;;;;;;;;;;;2.88;100.00;102076.09;6215504;23;19916;-80
2022/12/06 09:33:24;;;;;;;;;;;;;;;2.87;100.00;102070.06;6215530;23;19922;-80
2022/12/06 09:35:50;;;;;;;;;;;;;;;2.87;100.00;102072.63;6214808;23;19912;-80
2022/12/06 09:38:16;;;;;;;;;;;;;;;2.88;100.00;102078.66;6215848;23;20252;-80
2022/12/06 09:40:47;;;;;;;;;;;;;;;2.93;100.00;102071.94;6215068;23;19916;-80
2022/12/06 09:43:18;;;;;;;;;;;;;;;2.94;100.00;102077.16;6215103;23;20316;-80
2022/12/06 09:45:43;;;;;;;;;;;;;;;2.95;100.00;102071.16;6214895;23;19912;-81
2022/12/06 09:48:29;;;;;;;;;;;;;;;2.94;100.00;102072.00;6215792;23;19912;-81
2022/12/06 09:50:54;;;;;;;;;;;;;;;2.97;100.00;102076.34;6214570;23;19911;-78
2022/12/06 09:53:33;;;;;;;;;;;;;;;2.99;100.00;102073.00;6215590;23;19912;-79
2022/12/06 09:56:04;;;;;;;;;;;;;;;3.09;100.00;102078.41;6212628;23;19939;-82
2022/12/06 09:58:55;;;;;;;;;;;;;;;3.13;100.00;102075.06;6215419;23;20343;-83
2022/12/06 10:01:32;;;;;;;;;;;;;;;3.14;100.00;102077.69;6179989;23;19916;-83
2022/12/06 10:04:02;;;;;;;;;;;;;;;3.17;100.00;102077.78;6214808;23;19977;-83
2022/12/06 10:06:33;;;;;;;;;;;;;;;3.18;100.00;102076.06;6215666;23;19915;-83
2022/12/06 10:09:13;;;;;;;;;;;;;;;3.18;100.00;102074.34;6214345;23;20346;-83
2022/12/06 10:11:47;;;;;;;;;;;;;;;3.18;100.00;102070.91;6214400;23;19919;-83
2022/12/06 10:14:25;;;;;;;;;;;;;;;3.19;100.00;102062.34;6215345;23;19912;-82
2022/12/06 10:17:09;;;;;;;;;;;;;;;3.20;100.00;102074.38;6215330;23;19911;-82
2022/12/06 10:19:53;;;;;;;;;;;;;;;3.20;100.00;102066.66;6215433;23;19912;-85
2022/12/06 10:22:22;;;;;;;;;;;;;;;3.18;100.00;102063.19;6214790;23;19923;-82
2022/12/06 10:25:02;;;;;;;;;;;;;;;3.14;100.00;102061.34;6213997;23;19916;-83
2022/12/06 10:27:32;;;;;;;;;;;;;;;3.10;100.00;102059.50;6214889;23;20267;-82
2022/12/06 10:30:01;;;;;;;;;;;;;;;3.03;100.00;102061.94;6215154;23;19916;-82
2022/12/06 10:32:46;;;;;;;;;;;;;;;2.99;100.00;102054.94;6214604;23;19912;-82
2022/12/06 10:35:12;;;;;;;;;;;;;;;2.98;100.00;102045.50;6168798;23;19982;-82
2022/12/06 10:37:44;;;;;;;;;;;;;;;3.00;100.00;102056.69;6215529;23;20313;-82
2022/12/06 10:40:19;;;;;;;;;;;;;;;3.03;100.00;102059.34;6214647;23;19958;-82
2022/12/06 10:43:09;;;;;;;;;;;;;;;3.09;100.00;102057.78;6216631;23;20287;-82
2022/12/06 10:48:45;;;;;;;;;;;;;;;3.24;100.00;102055.63;6216584;23;19919;-79
2022/12/06 10:51:13;;;;;;;;;;;;;;;3.33;100.00;102057.53;6216855;23;19915;-79
2022/12/06 10:53:52;;;;;;;;;;;;;;;3.42;100.00;102056.06;6214825;23;20324;-79
2022/12/06 10:56:23;;;;;;;;;;;;;;;3.50;100.00;102053.69;6216986;23;19908;-79
2022/12/06 10:59:01;;;;;;;;;;;;;;;3.50;100.00;102062.31;6216434;23;19919;-80
2022/12/06 11:01:37;;;;;;;;;;;;;;;3.52;100.00;102059.75;6215667;23;20300;-80
2022/12/06 11:04:11;;;;;;;;;;;;;;;3.53;100.00;102061.47;6216439;23;19978;-80
2022/12/06 11:06:43;;;;;;;;;;;;;;;3.58;100.00;102059.03;6216282;23;19912;-80
2022/12/06 11:09:18;;;;;;;;;;;;;;;3.57;100.00;102054.72;6216542;23;19912;-80
2022/12/06 11:11:44;;;;;;;;;;;;;;;3.55;100.00;102061.53;6216224;23;20329;-79
2022/12/06 11:14:26;;;;;;;;;;;;;;;3.56;100.00;102055.53;6215367;23;20236;-80
2022/12/06 11:17:03;;;;;;;;;;;;;;;3.56;100.00;102050.38;6215837;23;19994;-80
2022/12/06 11:19:34;;;;;;;;;;;;;;;3.60;100.00;102054.81;6216628;23;19967;-79
2022/12/06 11:22:07;;;;;;;;;;;;;;;3.64;100.00;102051.47;6215669;23;19950;-80
2022/12/06 11:24:39;;;;;;;;;;;;;;;3.72;100.00;102047.34;6216558;23;20236;-79
2022/12/06 11:27:14;;;;;;;;;;;;;;;3.80;100.00;102045.84;6215129;23;19979;-79
2022/12/06 11:29:41;;;;;;;;;;;;;;;3.90;100.00;102045.19;6215182;23;19987;-79
2022/12/06 11:32:07;;;;;;;;;;;;;;;3.96;100.00;102042.75;6215219;23;20388;-80
2022/12/06 11:34:36;;;;;;;;;;;;;;;4.04;100.00;102042.94;6214347;23;19938;-79
2022/12/06 11:37:03;;;;;;;;;;;;;;;4.07;100.00;102043.00;6215478;23;20243;-79
2022/12/06 11:39:29;;;;;;;;;;;;;;;4.10;100.00;102044.78;6216470;23;19912;-80
2022/12/06 11:41:56;;;;;;;;;;;;;;;4.22;100.00;102042.47;6215166;23;19995;-79
2022/12/06 11:44:25;;;;;;;;;;;;;;;4.38;100.00;102030.75;6216426;23;20322;-80
2022/12/06 11:46:57;;;;;;;;;;;;;;;4.58;100.00;102026.88;6215760;23;19915;-79
2022/12/06 11:49:27;;;;;;;;;;;;;;;4.74;100.00;102024.59;6215399;23;19959;-80
2022/12/06 11:51:53;;;;;;;;;;;;;;;4.84;100.00;102021.34;6216389;23;19915;-80
2022/12/06 11:54:25;;;;;;;;;;;;;;;4.90;100.00;102019.75;6216093;23;19912;-80
2022/12/06 11:56:50;;;;;;;;;;;;;;;5.00;100.00;102006.97;6213738;23;19912;-81
2022/12/06 11:59:24;;;;;;;;;;;;;;;5.02;100.00;102010.47;6216448;23;19979;-80
2022/12/06 12:01:50;;;;;;;;;;;;;;;4.91;100.00;102003.41;6214818;23;20329;-80
2022/12/06 12:04:24;;;;;;;;;;;;;;;4.82;100.00;102005.81;6215366;23;20320;-81
2022/12/06 12:06:56;;;;;;;;;;;;;;;4.72;100.00;102009.06;6216273;23;19927;-81
2022/12/06 12:09:21;;;;;;;;;;;;;;;4.66;100.00;102002.06;6216015;23;19916;-81
2022/12/06 12:11:53;;;;;;;;;;;;;;;4.62;100.00;101999.41;6215368;23;20360;-81
2022/12/06 12:14:25;;;;;;;;;;;;;;;4.55;100.00;102001.00;6216651;23;19990;-81
2022/12/06 12:16:55;;;;;;;;;;;;;;;4.48;100.00;101999.13;6214785;23;19912;-81
2022/12/06 12:19:20;;;;;;;;;;;;;;;4.45;100.00;101988.75;6215638;23;19912;-80
2022/12/06 12:21:45;;;;;;;;;;;;;;;4.50;100.00;101994.00;6214262;23;19951;-80
2022/12/06 12:24:29;;;;;;;;;;;;;;;4.57;100.00;101994.13;6214498;23;19923;-81
2022/12/06 12:26:55;;;;;;;;;;;;;;;4.68;100.00;101986.63;6214720;23;19966;-81
2022/12/06 12:29:21;;;;;;;;;;;;;;;4.84;100.00;101982.56;6216434;23;19998;-81
2022/12/06 12:31:57;;;;;;;;;;;;;;;4.98;100.00;101978.53;6215498;23;19908;-80
2022/12/06 12:34:29;;;;;;;;;;;;;;;5.07;100.00;101972.69;6215873;23;19912;-80
2022/12/06 12:36:59;;;;;;;;;;;;;;;5.18;100.00;101976.31;6214774;23;19908;-80
2022/12/06 12:39:32;;;;;;;;;;;;;;;5.30;100.00;101976.50;6212375;23;19947;-81
2022/12/06 12:41:58;;;;;;;;;;;;;;;5.39;100.00;101970.59;6215001;23;19916;-80
2022/12/06 12:44:26;;;;;;;;;;;;;;;5.50;100.00;101974.25;6215998;23;19912;-81
2022/12/06 12:46:59;;;;;;;;;;;;;;;5.58;100.00;101974.34;6215013;23;19916;-81
2022/12/06 12:49:34;;;;;;;;;;;;;;;5.68;100.00;101977.94;6216255;23;19966;-81
2022/12/06 12:52:00;;;;;;;;;;;;;;;5.66;100.00;101972.75;6214521;23;20385;-80
2022/12/06 12:54:31;;;;;;;;;;;;;;;5.59;100.00;101964.03;6216287;23;19991;-80
2022/12/06 12:56:57;;;;;;;;;;;;;;;5.51;100.00;101970.78;6215904;23;19974;-81
2022/12/06 12:59:24;;;;;;;;;;;;;;;5.43;100.00;101974.09;6215383;23;19919;-81
2022/12/06 13:01:49;;;;;;;;;;;;;;;5.32;100.00;101969.63;6215492;23;19951;-81
2022/12/06 13:04:27;;;;;;;;;;;;;;;5.23;100.00;101969.50;6215397;23;19935;-80
2022/12/06 13:06:58;;;;;;;;;;;;;;;5.16;100.00;101975.38;6214965;23;19908;-80